IGO1903 VABB-LGAV
Flight info
| Callsign | IGO1903 |
|---|---|
| Flight time | N/A |
| Altitude | 32000 |
| Route | RAXET2A SAKUN DCT BIMOT DCT KARKU L301 RAGMA DCT IVOXI/N0474F340 P699 TUDIS N571 ALPOB L768 AAR DCT TRF/N0463F360 R652 OBROD Q163 GENEX L53 ANIDE UL53 TIPAS UN137 NEVRA |
| Aircraft | A21N/M-SDE3FGHIRWY/LB1 |
Departure
| Time | N/A |
|---|---|
| Airport | Chhatrapati Shivaji Maharaj International Airport (VABB) |
Arrival
| Time | 2026-05-07 11:44 |
|---|---|
| Airport | Athens Eleftherios Venizelos International Airport (LGAV) |
| Time | Latitude | Longitude | Altitude | Speed | Heading |
|---|---|---|---|---|---|
| 2026-05-07 11:25 | 38.19884 | 24.27384 | 26646 ft | 483 kts | 10° |
| 2026-05-07 11:25 | 38.22891 | 24.29032 | 25593 ft | 498 kts | 28° |
| 2026-05-07 11:26 | 38.26981 | 24.35095 | 23634 ft | 515 kts | 64° |
| 2026-05-07 11:26 | 38.27871 | 24.39767 | 22804 ft | 509 kts | 85° |
| 2026-05-07 11:26 | 38.27570 | 24.44036 | 22052 ft | 503 kts | 104° |
| 2026-05-07 11:26 | 38.26292 | 24.47890 | 21232 ft | 494 kts | 122° |
| 2026-05-07 11:27 | 38.24138 | 24.51048 | 20287 ft | 482 kts | 142° |
| 2026-05-07 11:27 | 38.21563 | 24.52996 | 19443 ft | 471 kts | 160° |
| 2026-05-07 11:27 | 38.18421 | 24.53949 | 18610 ft | 460 kts | 175° |
| 2026-05-07 11:27 | 38.15260 | 24.54209 | 17868 ft | 453 kts | 181° |
| 2026-05-07 11:28 | 38.12154 | 24.54031 | 17227 ft | 442 kts | 187° |
| 2026-05-07 11:28 | 38.09203 | 24.53421 | 16602 ft | 424 kts | 194° |
| 2026-05-07 11:28 | 38.06437 | 24.52446 | 15990 ft | 407 kts | 200° |
| 2026-05-07 11:28 | 38.03820 | 24.51340 | 15418 ft | 393 kts | 201° |
| 2026-05-07 11:29 | 38.01262 | 24.50288 | 14865 ft | 380 kts | 200° |
| 2026-05-07 11:29 | 37.98818 | 24.49345 | 14351 ft | 369 kts | 197° |
| 2026-05-07 11:29 | 37.96382 | 24.49029 | 13902 ft | 363 kts | 175° |
| 2026-05-07 11:29 | 37.94096 | 24.50014 | 13501 ft | 355 kts | 148° |
| 2026-05-07 11:30 | 37.92411 | 24.52103 | 13113 ft | 345 kts | 122° |
| 2026-05-07 11:30 | 37.91487 | 24.54818 | 12759 ft | 332 kts | 106° |
| 2026-05-07 11:30 | 37.90798 | 24.57531 | 12405 ft | 322 kts | 108° |
| 2026-05-07 11:30 | 37.90224 | 24.60138 | 12047 ft | 312 kts | 95° |
| 2026-05-07 11:31 | 37.90343 | 24.62828 | 11688 ft | 299 kts | 72° |
| 2026-05-07 11:31 | 37.91167 | 24.65150 | 11353 ft | 287 kts | 52° |
| 2026-05-07 11:31 | 37.92535 | 24.66911 | 10987 ft | 275 kts | 32° |
| 2026-05-07 11:31 | 37.94180 | 24.67921 | 10654 ft | 267 kts | 13° |
| 2026-05-07 11:32 | 37.97678 | 24.67774 | 10103 ft | 252 kts | 338° |
| 2026-05-07 11:32 | 37.99176 | 24.66712 | 9830 ft | 246 kts | 320° |
| 2026-05-07 11:32 | 38.00321 | 24.65146 | 9727 ft | 244 kts | 303° |
| 2026-05-07 11:33 | 38.01037 | 24.63238 | 9687 ft | 246 kts | 287° |
| 2026-05-07 11:33 | 38.01269 | 24.61087 | 9674 ft | 248 kts | 270° |
| 2026-05-07 11:33 | 38.00934 | 24.58959 | 9545 ft | 253 kts | 246° |
| 2026-05-07 11:33 | 38.00024 | 24.56984 | 9446 ft | 261 kts | 243° |
| 2026-05-07 11:34 | 37.99490 | 24.54841 | 9306 ft | 258 kts | 267° |
| 2026-05-07 11:34 | 37.99431 | 24.52548 | 9203 ft | 259 kts | 269° |
| 2026-05-07 11:34 | 37.99369 | 24.50304 | 9078 ft | 258 kts | 275° |
| 2026-05-07 11:34 | 37.99809 | 24.48117 | 8929 ft | 257 kts | 296° |
| 2026-05-07 11:35 | 38.00718 | 24.46145 | 8789 ft | 257 kts | 302° |
| 2026-05-07 11:35 | 38.01643 | 24.44260 | 8623 ft | 256 kts | 301° |
| 2026-05-07 11:35 | 38.02553 | 24.42336 | 8403 ft | 256 kts | 300° |
| 2026-05-07 11:35 | 38.03440 | 24.40396 | 8125 ft | 255 kts | 299° |
| 2026-05-07 11:36 | 38.04318 | 24.38434 | 7824 ft | 253 kts | 298° |
| 2026-05-07 11:36 | 38.05181 | 24.36487 | 7515 ft | 252 kts | 298° |
| 2026-05-07 11:36 | 38.06020 | 24.34555 | 7206 ft | 251 kts | 297° |
| 2026-05-07 11:36 | 38.06851 | 24.32624 | 6898 ft | 249 kts | 297° |
| 2026-05-07 11:37 | 38.07672 | 24.30712 | 6597 ft | 248 kts | 297° |
| 2026-05-07 11:37 | 38.08495 | 24.28798 | 6289 ft | 246 kts | 297° |
| 2026-05-07 11:37 | 38.09306 | 24.26913 | 5991 ft | 245 kts | 297° |
| 2026-05-07 11:37 | 38.10134 | 24.25025 | 5690 ft | 244 kts | 297° |
| 2026-05-07 11:38 | 38.10962 | 24.23157 | 5403 ft | 244 kts | 297° |
| 2026-05-07 11:38 | 38.11786 | 24.21294 | 5104 ft | 243 kts | 297° |
| 2026-05-07 11:38 | 38.12606 | 24.19438 | 4810 ft | 241 kts | 297° |
| 2026-05-07 11:38 | 38.13422 | 24.17585 | 4518 ft | 240 kts | 297° |
| 2026-05-07 11:39 | 38.14208 | 24.15763 | 4229 ft | 239 kts | 293° |
| 2026-05-07 11:39 | 38.14625 | 24.13769 | 3977 ft | 232 kts | 270° |
| 2026-05-07 11:39 | 38.14314 | 24.11812 | 3721 ft | 225 kts | 238° |
| 2026-05-07 11:39 | 38.13234 | 24.10436 | 3441 ft | 220 kts | 207° |
| 2026-05-07 11:40 | 38.11826 | 24.09710 | 3200 ft | 218 kts | 199° |
| 2026-05-07 11:40 | 38.10402 | 24.08977 | 3010 ft | 226 kts | 206° |
| 2026-05-07 11:40 | 38.09094 | 24.08001 | 2962 ft | 213 kts | 214° |
| 2026-05-07 11:40 | 38.07918 | 24.06911 | 2958 ft | 206 kts | 217° |
| 2026-05-07 11:41 | 38.06794 | 24.05817 | 2967 ft | 206 kts | 217° |
| 2026-05-07 11:41 | 38.05650 | 24.04709 | 2858 ft | 207 kts | 216° |
| 2026-05-07 11:41 | 38.04502 | 24.03614 | 2610 ft | 206 kts | 216° |
| 2026-05-07 11:41 | 38.03363 | 24.02534 | 2346 ft | 205 kts | 216° |
| 2026-05-07 11:42 | 38.02218 | 24.01450 | 2080 ft | 203 kts | 216° |
| 2026-05-07 11:42 | 38.01104 | 24.00395 | 1845 ft | 197 kts | 216° |
| 2026-05-07 11:42 | 38.00051 | 23.99394 | 1645 ft | 181 kts | 216° |
| 2026-05-07 11:42 | 37.99070 | 23.98463 | 1382 ft | 169 kts | 216° |
| 2026-05-07 11:43 | 37.98182 | 23.97620 | 1173 ft | 154 kts | 216° |
| 2026-05-07 11:43 | 37.97361 | 23.96847 | 932 ft | 141 kts | 217° |
| 2026-05-07 11:43 | 37.96612 | 23.96119 | 727 ft | 131 kts | 217° |
| 2026-05-07 11:43 | 37.95884 | 23.95427 | 615 ft | 132 kts | 217° |
| 2026-05-07 11:44 | 37.95145 | 23.94735 | 466 ft | 131 kts | 217° |
| 2026-05-07 11:44 | 37.94416 | 23.94044 | 323 ft | 129 kts | 217° |
| 2026-05-07 11:44 | 37.93796 | 23.93453 | 317 ft | 87 kts | 217° |
| 2026-05-07 11:44 | 37.93440 | 23.93116 | 317 ft | 40 kts | 216° |
| 2026-05-07 11:45 | 37.93309 | 23.92991 | 317 ft | 17 kts | 218° |